Main page
METAR-TAF:

METAR-TAF

Airports :

Antwerp International Airport

Antwerp, Belgium

latitude: 51-12N, longitude: 004-28E, elevation: 12 m

Current weather observation

The report was made 14 minutes ago, at 14:50 UTC
Wind 12 kt from the North/Northwest, varying between Northwest and North
Temperature 14°C
Humidity 72%
Pressure 1029 hPa
Visibility 10 km or more
Few clouds at a height of 2400 ft
Broken clouds at a height of 4400 ft

METAR: EBAW 221450Z 33012KT 310V010 9999 FEW024 BKN044 14/09 Q1029 NOSIG

Time: 17:04 (15:04 UTC)

Forecast

The report was made 54 minutes ago, at 14:10 UTC
Forecast valid from 22 at 15 UTC to 22 at 24 UTC
Wind 10 kt from the North/Northwest
Visibility 10 km or more
Scattered clouds at a height of 3000 ft
Broken clouds at a height of 4000 ft

TAF: EBAW 221410Z 2215/2224 33010KT 9999 SCT030 BKN040

Weather observations and forecasts of more than 4000 airports (METAR and TAF reports).

The available stations are represented by yellow and red dots on the map.

Hover mouse over dot to see the name of the station.

Then click to see weather observations and forecasts.

To change the map : click on the green buttons with a black cross to zoom in, on the green button with a dash to zoom out, or on the green arrows for adjacent maps.


METAR-TAF: